Time;durP1;ratioP1;P1;durP2;ratioP2;P2;SDS_P1;SDS_P2;PMS_P1;PMS_P2;Temp;Humidity;BMP_temperature;BMP_pressure;BME280_temperature;BME280_humidity;BME280_pressure;Samples;Min_cycle;Max_cycle;Signal;HPM_P1;HPM_P2
2023/01/25 00:00:38;;;;;;;18.07;11.33;;;;;;;2.68;68.94;101882.66;5044753;28;20690;-80
2023/01/25 00:03:03;;;;;;;18.67;10.77;;;;;;;2.64;69.45;101883.97;5044689;28;20258;-80
2023/01/25 00:05:28;;;;;;;20.15;11.65;;;;;;;2.70;70.00;101877.09;5044418;28;20323;-80
2023/01/25 00:07:54;;;;;;;18.87;12.77;;;;;;;2.79;69.86;101874.28;5042720;28;20501;-80
2023/01/25 00:10:19;;;;;;;21.23;10.10;;;;;;;2.77;69.32;101873.59;5044561;28;20270;-80
2023/01/25 00:12:45;;;;;;;21.35;13.52;;;;;;;2.72;69.48;101875.09;5044652;28;20039;-79
2023/01/25 00:15:10;;;;;;;20.23;11.82;;;;;;;2.71;70.12;101876.06;5044405;28;20033;-80
2023/01/25 00:17:36;;;;;;;18.30;11.23;;;;;;;2.71;69.82;101867.97;5042828;28;20033;-80
2023/01/25 00:20:02;;;;;;;21.30;12.98;;;;;;;2.79;70.20;101870.72;5043898;28;20036;-81
2023/01/25 00:22:27;;;;;;;22.17;13.48;;;;;;;2.81;70.01;101868.72;5044620;28;20048;-80
2023/01/25 00:24:52;;;;;;;22.73;12.07;;;;;;;2.89;69.62;101863.38;5044169;28;20037;-81
2023/01/25 00:27:17;;;;;;;23.85;13.38;;;;;;;3.00;68.88;101853.31;5043056;28;20301;-80
2023/01/25 00:29:43;;;;;;;25.80;15.10;;;;;;;2.89;69.01;101843.66;5043501;28;20076;-80
2023/01/25 00:32:11;;;;;;;17.93;11.10;;;;;;;2.79;69.21;101846.47;5044395;28;20861;-80
2023/01/25 00:34:42;;;;;;;19.17;11.50;;;;;;;2.90;69.54;101846.22;5044173;28;20276;-80
2023/01/25 00:37:35;;;;;;;19.95;10.82;;;;;;;2.83;69.82;101847.03;5043993;28;20079;-80
2023/01/25 00:40:00;;;;;;;23.55;12.48;;;;;;;2.87;69.74;101841.13;5043736;28;20405;-80
2023/01/25 00:42:25;;;;;;;19.53;11.87;;;;;;;2.77;69.55;101840.41;5044420;28;20029;-79
2023/01/25 00:44:50;;;;;;;21.38;13.60;;;;;;;2.48;69.82;101837.09;5043771;28;21363;-81
2023/01/25 00:47:16;;;;;;;21.10;11.88;;;;;;;2.47;71.12;101829.16;5042966;28;20060;-80
2023/01/25 00:49:43;;;;;;;17.95;11.35;;;;;;;2.53;70.71;101833.91;5042667;28;20044;-80
2023/01/25 00:52:09;;;;;;;24.40;11.60;;;;;;;2.57;70.58;101827.19;5043473;28;20025;-80
2023/01/25 00:54:34;;;;;;;22.02;12.43;;;;;;;2.61;70.01;101827.69;5043610;28;20036;-80
2023/01/25 00:57:00;;;;;;;21.50;12.53;;;;;;;2.58;70.42;101831.59;5042232;28;20041;-80
2023/01/25 00:59:25;;;;;;;23.17;12.45;;;;;;;2.57;69.87;101821.81;5042207;28;20290;-80
2023/01/25 01:01:52;;;;;;;23.50;13.27;;;;;;;2.56;70.36;101822.81;5043379;28;20037;-79
2023/01/25 01:04:18;;;;;;;19.38;11.15;;;;;;;2.54;70.17;101831.03;5043392;28;20029;-80
2023/01/25 01:06:43;;;;;;;21.67;12.43;;;;;;;2.59;70.39;101822.47;5043773;28;20491;-80
2023/01/25 01:09:14;;;;;;;22.67;13.65;;;;;;;2.54;70.38;101820.25;5041624;28;20037;-78
2023/01/25 01:11:39;;;;;;;24.25;14.45;;;;;;;2.60;70.33;101820.66;5042902;28;20057;-80
2023/01/25 01:14:04;;;;;;;27.50;16.80;;;;;;;2.58;70.13;101823.50;5042749;28;20167;-79
2023/01/25 01:16:30;;;;;;;21.73;13.32;;;;;;;2.49;70.37;101819.91;5043328;28;20039;-78
2023/01/25 01:18:55;;;;;;;23.50;14.70;;;;;;;2.55;70.30;101821.97;5041373;28;20029;-79
2023/01/25 01:21:21;;;;;;;21.30;14.13;;;;;;;2.63;70.29;101823.84;5043349;28;20044;-79
2023/01/25 01:23:46;;;;;;;19.97;13.17;;;;;;;2.61;69.84;101820.47;5043221;28;20044;-80
2023/01/25 01:26:14;;;;;;;21.45;12.82;;;;;;;2.61;70.59;101825.88;5042722;28;20347;-81
2023/01/25 01:28:39;;;;;;;20.42;12.60;;;;;;;2.60;69.67;101826.88;5041449;28;20386;-81
2023/01/25 01:31:09;;;;;;;22.38;14.57;;;;;;;2.66;70.41;101828.94;5042517;28;20040;-80
2023/01/25 01:33:34;;;;;;;23.88;14.43;;;;;;;2.67;70.14;101825.22;5043450;28;20029;-80
2023/01/25 01:36:15;;;;;;;25.35;13.48;;;;;;;2.73;70.30;101822.88;5042949;28;20041;-80
2023/01/25 01:38:41;;;;;;;22.10;12.48;;;;;;;2.74;70.28;101819.19;5041258;28;20433;-81
2023/01/25 01:41:07;;;;;;;21.95;12.80;;;;;;;2.66;70.03;101822.69;5042965;28;20025;-80
2023/01/25 01:43:34;;;;;;;20.52;14.10;;;;;;;2.63;70.42;101818.47;5043257;28;20029;-81
2023/01/25 01:46:04;;;;;;;20.38;11.63;;;;;;;2.58;70.71;101815.44;5043298;28;20045;-81
2023/01/25 01:48:47;;;;;;;23.08;11.48;;;;;;;2.61;70.21;101825.88;5041270;28;20035;-80
2023/01/25 01:51:31;;;;;;;21.90;14.10;;;;;;;2.62;70.21;101822.19;5042919;28;20071;-81
2023/01/25 01:54:02;;;;;;;23.10;14.17;;;;;;;2.72;70.33;101815.81;5043166;28;20041;-80
2023/01/25 01:56:38;;;;;;;24.33;14.23;;;;;;;2.59;70.57;101811.72;5043074;28;20464;-81
2023/01/25 01:59:04;;;;;;;45.63;14.00;;;;;;;2.66;70.29;101811.91;5041101;28;20143;-79
2023/01/25 02:01:30;;;;;;;24.30;15.35;;;;;;;2.66;70.46;101817.31;5043280;28;20044;-81
2023/01/25 02:03:56;;;;;;;26.88;15.18;;;;;;;2.60;70.89;101816.09;5042936;28;20478;-80
2023/01/25 02:06:32;;;;;;;27.27;15.60;;;;;;;2.67;70.17;101819.84;5042729;28;20067;-80
2023/01/25 02:08:57;;;;;;;24.63;14.80;;;;;;;2.67;70.35;101817.13;5041214;28;20041;-79
2023/01/25 02:11:24;;;;;;;24.75;14.20;;;;;;;2.59;70.70;101816.25;5042550;28;20087;-80
2023/01/25 02:13:51;;;;;;;21.92;12.98;;;;;;;2.65;70.27;101821.00;5042558;28;20041;-81
2023/01/25 02:16:21;;;;;;;20.83;16.05;;;;;;;2.53;70.70;101823.13;5042625;28;20087;-81
2023/01/25 02:18:46;;;;;;;24.15;12.90;;;;;;;2.59;70.52;101819.78;5041114;28;20358;-81
2023/01/25 02:21:12;;;;;;;27.67;15.82;;;;;;;2.38;70.93;101815.63;5044113;28;20041;-81
2023/01/25 02:24:00;;;;;;;25.00;12.98;;;;;;;2.49;71.53;101809.13;5046855;28;20047;-79
2023/01/25 02:26:25;;;;;;;20.95;12.85;;;;;;;2.50;70.82;101813.50;5046268;28;20031;-80
2023/01/25 02:29:02;;;;;;;26.00;17.52;;;;;;;2.50;70.96;101807.31;5044806;28;20556;-80
2023/01/25 02:31:27;;;;;;;23.98;12.25;;;;;;;2.54;70.17;101804.09;5046622;28;20033;-80
2023/01/25 02:33:53;;;;;;;26.63;14.32;;;;;;;2.60;70.81;101805.34;5046925;28;20082;-81
2023/01/25 02:36:23;;;;;;;29.63;16.85;;;;;;;2.56;71.09;101807.47;5046291;28;20102;-79
2023/01/25 02:38:55;;;;;;;32.30;15.25;;;;;;;2.49;70.81;101805.59;5045164;28;20127;-80
2023/01/25 02:41:29;;;;;;;27.15;17.60;;;;;;;2.45;71.35;101805.94;5046206;28;20037;-80
2023/01/25 02:43:54;;;;;;;29.85;13.90;;;;;;;2.51;71.35;101804.44;5046672;28;20048;-79
2023/01/25 02:46:21;;;;;;;23.73;14.02;;;;;;;2.47;71.14;101808.47;5046359;28;20052;-80
2023/01/25 02:48:47;;;;;;;24.50;14.15;;;;;;;2.54;71.17;101814.06;5044691;28;20040;-79
2023/01/25 02:51:13;;;;;;;25.95;15.40;;;;;;;2.55;71.17;101815.72;5046607;28;20029;-80
2023/01/25 02:53:39;;;;;;;24.85;12.88;;;;;;;2.52;71.09;101810.69;5046395;28;20336;-81
2023/01/25 02:56:05;;;;;;;22.27;12.32;;;;;;;2.45;71.51;101808.63;5046243;28;20082;-80
2023/01/25 02:58:30;;;;;;;26.25;13.57;;;;;;;2.53;71.39;101806.97;5044810;28;20060;-80
2023/01/25 03:00:57;;;;;;;31.77;13.55;;;;;;;2.58;70.87;101818.13;5046292;28;20037;-80
2023/01/25 03:03:22;;;;;;;23.88;11.93;;;;;;;2.56;70.47;101801.28;5046216;28;20076;-80
2023/01/25 03:05:47;;;;;;;21.27;12.30;;;;;;;2.53;70.66;101807.81;5046524;28;20600;-81
2023/01/25 03:08:12;;;;;;;20.52;12.30;;;;;;;2.45;70.69;101805.94;5045519;28;20043;-81
2023/01/25 03:10:38;;;;;;;24.43;13.20;;;;;;;2.46;71.07;101809.47;5046195;28;20025;-79
2023/01/25 03:13:03;;;;;;;21.67;13.13;;;;;;;2.50;71.22;101801.91;5045634;28;20282;-79
2023/01/25 03:15:28;;;;;;;23.83;13.33;;;;;;;2.55;70.82;101805.81;5046313;28;20302;-79
2023/01/25 03:17:55;;;;;;;25.58;14.68;;;;;;;2.53;71.27;101802.44;5043610;28;20698;-80
2023/01/25 03:20:20;;;;;;;25.45;15.07;;;;;;;2.46;71.26;101796.00;5045887;28;20044;-80
2023/01/25 03:22:45;;;;;;;23.80;13.40;;;;;;;2.50;71.23;101796.53;5046162;28;20024;-80
2023/01/25 03:25:10;;;;;;;28.10;14.87;;;;;;;2.50;71.68;101786.56;5045834;28;20266;-80
2023/01/25 03:27:36;;;;;;;22.30;13.73;;;;;;;2.52;71.48;101787.25;5043983;28;20285;-79
2023/01/25 03:30:01;;;;;;;32.85;16.40;;;;;;;2.37;71.24;101791.56;5045335;28;20258;-80
2023/01/25 03:32:26;;;;;;;22.23;11.88;;;;;;;2.38;71.50;101783.31;5044973;28;20056;-80
2023/01/25 03:34:51;;;;;;;26.13;15.53;;;;;;;2.37;72.08;101781.66;5045063;28;20855;-81
2023/01/25 03:37:17;;;;;;;23.42;15.93;;;;;;;2.37;71.32;101788.88;5044941;28;20278;-80
2023/01/25 03:39:42;;;;;;;27.35;14.55;;;;;;;2.34;71.85;101781.94;5044666;28;20041;-81
2023/01/25 03:42:07;;;;;;;23.42;11.50;;;;;;;2.41;72.21;101783.03;5045241;28;20033;-80
2023/01/25 03:44:33;;;;;;;29.17;12.75;;;;;;;2.45;71.61;101772.75;5045409;28;20055;-80
2023/01/25 03:46:58;;;;;;;29.95;15.55;;;;;;;2.45;71.60;101762.00;5045534;28;20475;-79
2023/01/25 03:49:23;;;;;;;25.42;14.95;;;;;;;2.25;71.49;101761.38;5043847;28;20033;-80
2023/01/25 03:51:48;;;;;;;19.25;12.50;;;;;;;2.25;72.37;101758.69;5045470;28;20025;-80
2023/01/25 03:54:14;;;;;;;25.77;12.80;;;;;;;2.33;71.85;101748.81;5045261;28;20474;-80
2023/01/25 03:56:39;;;;;;;29.60;14.30;;;;;;;2.40;71.96;101750.88;5045108;28;20032;-80
2023/01/25 03:59:05;;;;;;;27.92;13.27;;;;;;;2.34;72.55;101744.25;5042671;28;20036;-80
2023/01/25 04:01:30;;;;;;;22.80;12.65;;;;;;;2.45;72.25;101743.16;5045195;28;20110;-80
2023/01/25 04:03:55;;;;;;;21.40;12.93;;;;;;;2.50;72.12;101734.59;5045102;28;20124;-80
2023/01/25 04:06:21;;;;;;;21.83;13.10;;;;;;;2.35;71.71;101731.66;5045042;28;20025;-79
2023/01/25 04:08:46;;;;;;;22.90;12.15;;;;;;;2.36;72.35;101738.75;5043223;28;20047;-80
2023/01/25 04:11:11;;;;;;;21.15;11.93;;;;;;;2.30;72.55;101732.13;5044351;28;20036;-80
2023/01/25 04:13:37;;;;;;;21.25;12.48;;;;;;;2.39;72.64;101725.78;5044872;28;20069;-80
2023/01/25 04:16:04;;;;;;;23.33;14.48;;;;;;;2.47;72.41;101726.81;5043236;28;20035;-79
2023/01/25 04:18:29;;;;;;;23.35;14.82;;;;;;;2.47;71.85;101721.44;5043172;28;20029;-81
2023/01/25 04:20:56;;;;;;;29.63;14.50;;;;;;;2.38;72.10;101724.09;5044292;28;20047;-81
2023/01/25 04:23:22;;;;;;;27.30;14.77;;;;;;;2.42;72.99;101719.25;5044127;28;20029;-81
2023/01/25 04:25:59;;;;;;;24.77;12.77;;;;;;;2.34;73.06;101711.94;5044539;28;20040;-80
2023/01/25 04:28:25;;;;;;;23.02;11.27;;;;;;;2.31;73.32;101707.75;5042565;28;20048;-82
2023/01/25 04:30:51;;;;;;;27.63;16.25;;;;;;;2.40;73.28;101710.50;5044528;28;20028;-81
2023/01/25 04:33:17;;;;;;;27.17;12.63;;;;;;;2.45;73.50;101708.13;5044572;28;20025;-78
2023/01/25 04:35:42;;;;;;;21.60;10.85;;;;;;;2.49;73.25;101703.25;5044790;28;20094;-81
2023/01/25 04:38:08;;;;;;;24.63;12.38;;;;;;;2.47;72.72;101695.34;5042808;28;20118;-80
2023/01/25 04:40:34;;;;;;;23.08;12.88;;;;;;;2.33;73.22;101694.13;5044614;28;20131;-81
2023/01/25 04:42:59;;;;;;;23.67;13.15;;;;;;;2.33;73.35;101696.81;5044414;28;20051;-79
2023/01/25 04:45:24;;;;;;;21.37;12.23;;;;;;;2.29;74.22;101699.00;5043877;28;20060;-79
2023/01/25 04:47:56;;;;;;;23.08;12.85;;;;;;;2.44;74.11;101695.69;5042313;28;20277;-78
2023/01/25 04:50:21;;;;;;;22.77;13.13;;;;;;;2.42;73.74;101698.53;5044065;28;20033;-79
2023/01/25 04:52:46;;;;;;;25.55;11.00;;;;;;;2.38;73.55;101691.78;5044402;28;20028;-80
2023/01/25 04:55:12;;;;;;;23.17;13.20;;;;;;;2.40;74.11;101683.56;5044197;28;20058;-80
2023/01/25 04:57:37;;;;;;;17.88;9.85;;;;;;;2.33;73.17;101680.66;5041154;28;20274;-78
2023/01/25 05:00:03;;;;;;;21.10;10.00;;;;;;;2.21;74.03;101685.50;5043920;28;20032;-80
2023/01/25 05:02:28;;;;;;;19.75;11.77;;;;;;;2.20;74.34;101684.66;5043976;28;20258;-80
2023/01/25 05:04:53;;;;;;;22.20;10.55;;;;;;;2.22;74.50;101688.03;5043677;28;20083;-80
2023/01/25 05:07:19;;;;;;;22.50;11.43;;;;;;;2.27;74.09;101689.38;5043059;28;20576;-79
2023/01/25 05:09:44;;;;;;;26.35;12.38;;;;;;;2.32;74.12;101681.66;5043016;28;20040;-80
2023/01/25 05:12:12;;;;;;;20.90;11.53;;;;;;;2.34;74.23;101685.03;5043601;28;20113;-79
2023/01/25 05:14:38;;;;;;;23.20;12.57;;;;;;;2.39;74.21;101682.72;5043540;28;20643;-79
2023/01/25 05:17:05;;;;;;;23.30;12.30;;;;;;;2.41;73.63;101680.69;5043737;28;20048;-79
2023/01/25 05:19:31;;;;;;;24.98;11.82;;;;;;;2.42;74.13;101682.38;5041942;28;20040;-80
2023/01/25 05:21:59;;;;;;;22.55;13.95;;;;;;;2.40;74.30;101672.78;5043550;28;20395;-80
2023/01/25 05:24:25;;;;;;;29.55;14.10;;;;;;;2.41;73.83;101680.69;5043452;28;20478;-80
2023/01/25 05:27:00;;;;;;;26.30;13.82;;;;;;;2.36;74.14;101677.63;5042939;28;20410;-80
2023/01/25 05:29:41;;;;;;;;;;;;;;;2.30;74.68;101689.06;5041663;28;20426;-81
2023/01/25 05:32:09;;;;;;;28.75;14.50;;;;;;;2.16;75.13;101683.28;5043710;28;20225;-80
2023/01/25 05:34:35;;;;;;;25.60;14.00;;;;;;;2.21;75.55;101680.97;5043668;28;20112;-80
2023/01/25 05:37:02;;;;;;;34.42;15.98;;;;;;;2.22;75.43;101679.94;5043254;28;20538;-80
2023/01/25 05:39:28;;;;;;;27.67;14.27;;;;;;;2.32;75.13;101681.66;5041480;28;20044;-79
2023/01/25 05:41:53;;;;;;;24.98;15.52;;;;;;;2.32;74.96;101678.97;5043215;28;20532;-81
2023/01/25 05:44:19;;;;;;;25.63;13.25;;;;;;;2.31;75.53;101674.59;5043223;28;20051;-80
2023/01/25 05:46:44;;;;;;;25.48;14.10;;;;;;;2.32;75.29;101681.66;5043046;28;20041;-79
2023/01/25 05:49:10;;;;;;;22.75;14.50;;;;;;;2.36;75.22;101679.50;5040497;28;20099;-80
2023/01/25 05:51:37;;;;;;;30.38;16.85;;;;;;;2.39;74.78;101682.72;5043295;28;20727;-80
2023/01/25 05:54:02;;;;;;;25.13;14.68;;;;;;;2.36;75.30;101683.03;5043202;28;20498;-80
2023/01/25 05:56:27;;;;;;;23.13;14.68;;;;;;;2.21;76.40;101670.19;5042564;28;20041;-80
2023/01/25 05:58:54;;;;;;;23.80;13.38;;;;;;;2.35;76.04;101675.13;5041850;28;20116;-80
2023/01/25 06:01:19;;;;;;;23.42;13.05;;;;;;;2.41;75.12;101669.94;5042854;28;20407;-80
2023/01/25 06:03:46;;;;;;;22.02;12.88;;;;;;;2.40;75.03;101673.63;5043292;28;20031;-83
2023/01/25 06:06:11;;;;;;;20.48;13.77;;;;;;;2.50;75.08;101683.44;5043069;28;20194;-80
2023/01/25 06:08:36;;;;;;;22.65;12.70;;;;;;;2.30;75.18;101684.53;5041614;28;20068;-81
2023/01/25 06:11:07;;;;;;;23.98;13.15;;;;;;;2.34;74.87;101668.88;5042808;28;20036;-80
2023/01/25 06:13:32;;;;;;;25.10;12.38;;;;;;;2.35;75.77;101670.59;5042911;28;20029;-80
2023/01/25 06:15:57;;;;;;;26.27;16.15;;;;;;;2.01;76.09;101663.38;5043339;28;20039;-79
2023/01/25 06:18:25;;;;;;;32.47;16.67;;;;;;;2.20;76.20;101667.66;5042079;28;20191;-80
2023/01/25 06:20:51;;;;;;;30.40;17.02;;;;;;;2.18;76.25;101664.28;5043403;28;20500;-79
2023/01/25 06:23:17;;;;;;;38.20;20.60;;;;;;;2.27;76.28;101665.16;5042598;28;20037;-80
2023/01/25 06:25:42;;;;;;;33.00;16.88;;;;;;;2.30;76.08;101662.13;5042602;28;20036;-79
2023/01/25 06:28:08;;;;;;;27.13;16.50;;;;;;;2.34;75.92;101658.09;5040772;28;20119;-80
2023/01/25 06:30:33;;;;;;;35.17;18.92;;;;;;;2.40;75.72;101668.22;5042515;28;20086;-80
2023/01/25 06:32:59;;;;;;;29.70;15.57;;;;;;;2.33;75.55;101668.06;5042861;28;20387;-79
2023/01/25 06:35:24;;;;;;;33.03;16.88;;;;;;;2.41;76.31;101669.94;5042577;28;20349;-81
2023/01/25 06:37:49;;;;;;;24.80;16.63;;;;;;;2.47;75.44;101673.81;5040732;28;20040;-80
2023/01/25 06:40:16;;;;;;;34.42;16.30;;;;;;;2.43;75.42;101657.16;5042608;28;20041;-79
2023/01/25 06:42:41;;;;;;;27.83;18.60;;;;;;;2.51;75.87;101677.03;5042319;28;20036;-80
2023/01/25 06:45:07;;;;;;;24.73;12.25;;;;;;;2.41;75.54;101680.69;5041713;28;20057;-78
2023/01/25 06:47:32;;;;;;;26.95;12.77;;;;;;;2.22;75.90;101676.41;5042055;28;20044;-80
2023/01/25 06:49:58;;;;;;;32.17;14.88;;;;;;;2.17;76.15;101674.22;5042107;28;20037;-80
2023/01/25 06:52:23;;;;;;;30.65;14.30;;;;;;;2.19;75.37;101674.06;5042597;28;20025;-78
2023/01/25 06:54:48;;;;;;;29.13;16.20;;;;;;;2.07;76.27;101673.50;5042333;28;20036;-79
2023/01/25 06:57:14;;;;;;;32.07;15.47;;;;;;;2.15;76.18;101673.53;5041613;28;20309;-79
2023/01/25 06:59:39;;;;;;;38.53;17.65;;;;;;;2.07;76.35;101681.56;5041781;28;20682;-80
2023/01/25 07:02:04;;;;;;;30.75;16.48;;;;;;;2.15;76.53;101670.84;5042321;28;20029;-78
2023/01/25 07:04:30;;;;;;;26.75;13.95;;;;;;;2.07;76.31;101684.25;5042540;28;20163;-80
2023/01/25 07:06:55;;;;;;;29.77;15.83;;;;;;;2.10;77.13;101673.16;5042834;28;20055;-80
2023/01/25 07:09:23;;;;;;;24.20;14.88;;;;;;;2.18;77.53;101677.72;5044383;28;20269;-79
2023/01/25 07:11:49;;;;;;;23.42;15.18;;;;;;;2.18;77.26;101680.44;5045486;28;20559;-80
2023/01/25 07:14:14;;;;;;;27.15;15.23;;;;;;;2.27;77.07;101673.25;5046041;28;20056;-81
2023/01/25 07:16:40;;;;;;;28.50;14.25;;;;;;;2.39;76.42;101674.63;5045476;28;20155;-80
2023/01/25 07:19:06;;;;;;;23.13;14.60;;;;;;;2.33;76.61;101672.59;5044804;28;20036;-79
2023/01/25 07:21:32;;;;;;;31.40;17.15;;;;;;;2.17;76.62;101676.91;5045955;28;20509;-81
2023/01/25 07:24:02;;;;;;;29.60;14.27;;;;;;;2.28;76.45;101662.31;5045152;28;20119;-79
2023/01/25 07:26:28;;;;;;;28.52;15.68;;;;;;;2.26;76.27;101666.19;5045591;28;20033;-81
2023/01/25 07:28:56;;;;;;;33.97;17.05;;;;;;;2.38;76.56;101670.25;5043717;28;20090;-81
2023/01/25 07:31:22;;;;;;;26.15;16.08;;;;;;;2.29;76.06;101657.78;5045797;28;20032;-81
2023/01/25 07:33:51;;;;;;;32.08;16.88;;;;;;;2.26;77.16;101658.09;5045727;28;20029;-81
2023/01/25 07:36:17;;;;;;;39.25;19.83;;;;;;;2.29;76.73;101668.53;5045416;28;20129;-82
2023/01/25 07:38:43;;;;;;;31.50;17.88;;;;;;;2.36;76.36;101655.28;5045310;28;20110;-81
2023/01/25 07:41:08;;;;;;;29.65;18.08;;;;;;;2.42;76.54;101666.22;5044933;28;20218;-80
2023/01/25 07:43:34;;;;;;;36.80;17.85;;;;;;;2.52;76.50;101654.47;5044380;28;20478;-81
2023/01/25 07:46:07;;;;;;;32.28;16.98;;;;;;;2.44;76.49;101652.63;5045184;28;20731;-82
2023/01/25 07:48:33;;;;;;;26.08;16.55;;;;;;;2.36;76.19;101650.72;5045217;28;20043;-80
2023/01/25 07:51:10;;;;;;;45.92;19.88;;;;;;;2.36;76.28;101645.31;5045688;28;20683;-81
2023/01/25 07:53:36;;;;;;;35.63;17.65;;;;;;;2.36;76.12;101639.94;5045592;28;20060;-81
2023/01/25 07:56:02;;;;;;;31.73;17.85;;;;;;;2.27;76.56;101644.47;5045110;28;20033;-80
2023/01/25 07:58:27;;;;;;;31.42;15.13;;;;;;;2.32;76.41;101649.34;5045028;28;20040;-80
2023/01/25 08:00:52;;;;;;;29.20;15.30;;;;;;;2.29;77.03;101655.06;5046080;28;20044;-82
2023/01/25 08:03:20;;;;;;;30.53;16.30;;;;;;;2.37;76.35;101648.88;5044645;28;20086;-85
2023/01/25 08:05:46;;;;;;;48.47;21.08;;;;;;;2.30;77.10;101649.53;5045429;28;20266;-82
2023/01/25 08:08:11;;;;;;;30.02;17.40;;;;;;;2.32;76.75;101649.34;5043429;28;20052;-83
2023/01/25 08:10:37;;;;;;;28.70;14.48;;;;;;;2.31;76.83;101653.06;5044828;28;20120;-83
2023/01/25 08:13:02;;;;;;;49.95;22.25;;;;;;;2.38;76.52;101654.09;5044704;28;20489;-81
2023/01/25 08:15:27;;;;;;;53.87;25.77;;;;;;;2.36;76.62;101648.03;5044768;28;20079;-80
2023/01/25 08:17:52;;;;;;;38.00;19.53;;;;;;;2.28;76.85;101642.63;5042956;28;20767;-82
2023/01/25 08:20:18;;;;;;;38.92;19.58;;;;;;;2.24;77.79;101649.34;5044339;28;20269;-80
2023/01/25 08:22:43;;;;;;;29.33;16.63;;;;;;;2.24;77.37;101641.28;5045081;28;20028;-82
2023/01/25 08:25:09;;;;;;;31.30;16.90;;;;;;;2.30;77.41;101640.59;5044501;28;20608;-81
2023/01/25 08:27:35;;;;;;;28.00;14.98;;;;;;;2.25;77.27;101641.09;5043282;28;20045;-83
2023/01/25 08:30:00;;;;;;;26.10;13.65;;;;;;;2.29;77.26;101644.31;5044196;28;20033;-82
2023/01/25 08:32:25;;;;;;;23.27;11.73;;;;;;;2.20;77.06;101633.50;5044324;28;20029;-84
2023/01/25 08:34:50;;;;;;;24.17;11.15;;;;;;;2.22;76.54;101634.19;5044609;28;20032;-82
2023/01/25 08:37:16;;;;;;;22.13;14.30;;;;;;;2.24;76.75;101635.88;5043963;28;20040;-82
2023/01/25 08:39:41;;;;;;;23.00;14.25;;;;;;;2.26;76.52;101633.88;5043317;28;20845;-81
2023/01/25 08:42:06;;;;;;;29.87;14.47;;;;;;;2.29;76.92;101638.94;5044201;28;20035;-79
2023/01/25 08:44:32;;;;;;;33.37;17.00;;;;;;;2.32;76.16;101628.66;5044850;28;20306;-81
2023/01/25 08:46:57;;;;;;;31.90;18.70;;;;;;;2.33;76.53;101626.81;5024339;28;20781;-79
2023/01/25 08:49:22;;;;;;;25.93;13.30;;;;;;;2.18;76.24;101630.13;5022558;28;20287;-82
2023/01/25 08:51:49;;;;;;;36.42;17.33;;;;;;;2.18;76.87;101640.91;5024025;28;20337;-83
2023/01/25 08:54:15;;;;;;;36.85;17.27;;;;;;;2.13;76.58;101629.78;5023992;28;20423;-82
2023/01/25 08:56:41;;;;;;;30.63;18.30;;;;;;;2.14;76.63;101642.22;5024201;28;20033;-82
2023/01/25 08:59:09;;;;;;;41.85;22.30;;;;;;;2.12;76.93;101633.47;5022790;28;20037;-83
2023/01/25 09:01:34;;;;;;;32.67;16.27;;;;;;;2.15;77.41;101638.56;5023194;28;20045;-79
2023/01/25 09:04:00;;;;;;;38.10;17.77;;;;;;;2.11;77.10;101631.81;5024161;28;20116;-81
2023/01/25 09:06:25;;;;;;;33.97;17.92;;;;;;;2.10;77.09;101622.03;5023900;28;20145;-80
2023/01/25 09:08:50;;;;;;;34.33;19.17;;;;;;;2.19;77.76;101629.16;5022627;28;20394;-80
2023/01/25 09:11:19;;;;;;;36.30;17.77;;;;;;;2.29;77.14;101622.78;5021701;28;20041;-80
2023/01/25 09:13:44;;;;;;;30.27;17.20;;;;;;;2.20;76.87;101613.81;5023315;28;20041;-80
2023/01/25 09:16:13;;;;;;;32.53;17.95;;;;;;;2.22;77.45;101615.34;5023359;28;20034;-82
2023/01/25 09:18:41;;;;;;;31.90;15.68;;;;;;;2.24;77.41;101608.97;5021973;28;20115;-81
2023/01/25 09:21:12;;;;;;;36.78;18.25;;;;;;;2.22;77.49;101607.28;5023497;28;20022;-81
2023/01/25 09:23:38;;;;;;;23.20;13.80;;;;;;;2.28;77.51;101599.56;5023583;28;20037;-81
2023/01/25 09:26:04;;;;;;;20.83;10.82;;;;;;;2.28;77.74;101602.25;5023121;28;20040;-80
2023/01/25 09:28:30;;;;;;;27.42;15.38;;;;;;;2.25;77.18;101597.19;5021997;28;20049;-82
2023/01/25 09:31:00;;;;;;;25.73;14.23;;;;;;;2.25;77.05;101592.66;5022866;28;20034;-80
2023/01/25 09:33:28;;;;;;;25.17;13.25;;;;;;;2.43;76.30;101589.84;5023136;28;20037;-80
2023/01/25 09:35:54;;;;;;;31.55;15.07;;;;;;;2.38;76.40;101592.16;5023232;28;20029;-81
2023/01/25 09:38:20;;;;;;;25.77;15.68;;;;;;;2.38;76.83;101594.84;5021662;28;20095;-79
2023/01/25 09:41:01;;;;;;;30.20;17.00;;;;;;;2.25;77.17;101594.50;5023240;28;20027;-80
2023/01/25 09:43:41;;;;;;;26.85;15.50;;;;;;;2.26;77.66;101594.31;5023565;28;20056;-80
2023/01/25 09:46:29;;;;;;;26.20;15.07;;;;;;;2.31;76.78;101585.75;5034979;28;20486;-78
2023/01/25 09:49:32;;;;;;;20.38;12.38;;;;;;;2.41;77.63;101583.78;5035200;28;20056;-80
2023/01/25 09:52:19;;;;;;;23.08;13.07;;;;;;;2.41;77.10;101583.78;5042469;28;20032;-80
2023/01/25 09:54:46;;;;;;;28.42;16.15;;;;;;;2.51;77.14;101580.91;5043244;28;20036;-80
2023/01/25 09:57:26;;;;;;;27.30;14.40;;;;;;;2.58;76.41;101583.81;5041463;28;20778;-80
2023/01/25 09:59:53;;;;;;;26.50;14.10;;;;;;;2.57;76.04;101584.78;5041561;28;20395;-81
2023/01/25 10:02:30;;;;;;;30.83;14.05;;;;;;;2.49;75.84;101579.41;5043571;28;20488;-81
2023/01/25 10:05:04;;;;;;;29.63;14.93;;;;;;;2.61;75.87;101578.06;5042916;28;20037;-79
2023/01/25 10:07:44;;;;;;;20.20;13.48;;;;;;;2.54;76.17;101577.88;5041828;28;20114;-77
2023/01/25 10:10:20;;;;;;;27.55;14.13;;;;;;;2.49;76.24;101572.16;5042790;28;20286;-80
2023/01/25 10:12:45;;;;;;;27.05;14.23;;;;;;;2.47;76.24;101576.03;5042981;28;20037;-79
2023/01/25 10:15:22;;;;;;;34.40;14.57;;;;;;;2.58;76.32;101573.03;5042367;28;20040;-79
2023/01/25 10:17:57;;;;;;;21.90;13.57;;;;;;;2.58;75.80;101575.72;5040712;28;20025;-80
2023/01/25 10:20:48;;;;;;;25.13;12.45;;;;;;;2.50;75.32;101575.72;5042583;28;20496;-79
2023/01/25 10:23:40;;;;;;;23.02;11.68;;;;;;;2.52;75.88;101568.31;5042991;28;20489;-80
2023/01/25 10:26:22;;;;;;;28.90;14.77;;;;;;;2.41;76.28;101562.22;5042495;28;20041;-79
2023/01/25 10:29:02;;;;;;;27.85;14.02;;;;;;;2.41;75.68;101564.94;5041125;28;20065;-79
2023/01/25 10:31:45;;;;;;;24.20;12.43;;;;;;;2.47;75.06;101559.88;5042500;28;20033;-79
2023/01/25 10:34:19;;;;;;;26.67;16.38;;;;;;;2.55;75.74;101557.19;5042704;28;20119;-81
2023/01/25 10:36:55;;;;;;;25.52;13.48;;;;;;;2.30;75.58;101551.75;5043154;28;20526;-79
2023/01/25 10:39:21;;;;;;;37.05;17.33;;;;;;;2.28;76.57;101543.03;5040940;28;20325;-80
2023/01/25 10:41:56;;;;;;;27.05;16.08;;;;;;;2.19;76.83;101537.63;5043216;28;20135;-81
2023/01/25 10:44:24;;;;;;;21.25;10.57;;;;;;;2.12;77.29;101536.59;5046151;28;20068;-80
2023/01/25 10:47:03;;;;;;;21.17;11.82;;;;;;;2.13;77.04;101532.06;5046602;28;20165;-81
2023/01/25 10:49:40;;;;;;;18.00;11.02;;;;;;;2.15;77.10;101530.91;5045020;28;20039;-81
2023/01/25 10:52:16;;;;;;;21.42;10.32;;;;;;;2.34;76.14;101528.88;5046009;28;20045;-81
2023/01/25 10:54:42;;;;;;;22.35;9.98;;;;;;;2.42;76.67;101520.00;5046587;28;20086;-81
2023/01/25 10:57:11;;;;;;;27.33;12.40;;;;;;;2.44;76.12;101523.38;5046107;28;20033;-80
2023/01/25 10:59:37;;;;;;;21.42;10.27;;;;;;;2.48;75.96;101519.34;5045523;28;20039;-82
2023/01/25 11:02:36;;;;;;;17.80;11.45;;;;;;;2.53;75.80;101521.50;5044948;28;20041;-85
2023/01/25 11:05:32;;;;;;;21.73;12.18;;;;;;;2.56;75.64;101515.81;5046369;28;20025;-79
2023/01/25 11:08:09;;;;;;;25.40;12.18;;;;;;;2.56;75.25;101516.63;5044287;28;20048;-81
2023/01/25 11:10:36;;;;;;;20.63;11.15;;;;;;;2.48;75.67;101513.09;5046197;28;20029;-84
2023/01/25 11:13:14;;;;;;;30.27;12.57;;;;;;;2.40;76.22;101506.69;5045947;28;20032;-81
2023/01/25 11:15:44;;;;;;;26.35;12.65;;;;;;;2.42;75.90;101504.66;5045964;28;20109;-84
2023/01/25 11:18:19;;;;;;;22.67;13.07;;;;;;;2.47;75.93;101495.25;5044592;28;20429;-81
2023/01/25 11:20:44;;;;;;;28.77;15.30;;;;;;;2.32;76.24;101487.81;5046655;28;20033;-82